createdAt,value
2022-12-03T00:00:10.443Z,16.20
2022-12-03T00:01:06.184Z,16.70
2022-12-03T00:02:04.216Z,15.60
2022-12-03T00:03:04.315Z,15.60
2022-12-03T00:04:04.208Z,16.00
2022-12-03T00:05:04.137Z,15.10
2022-12-03T00:06:04.118Z,15.40
2022-12-03T00:07:04.123Z,15.40
2022-12-03T00:08:04.177Z,15.60
2022-12-03T00:09:05.099Z,15.10
2022-12-03T00:10:04.085Z,15.80
2022-12-03T00:11:04.081Z,15.60
2022-12-03T00:12:04.088Z,16.20
2022-12-03T00:13:04.082Z,15.40
2022-12-03T00:14:04.044Z,16.20
2022-12-03T00:15:04.051Z,15.40
2022-12-03T00:16:04.073Z,16.10
2022-12-03T00:17:04.029Z,15.60
2022-12-03T00:18:04.027Z,16.00
2022-12-03T00:19:04.016Z,15.80
2022-12-03T00:20:04.011Z,15.20
2022-12-03T00:21:03.989Z,15.00
2022-12-03T00:22:03.982Z,15.20
2022-12-03T00:23:03.992Z,14.90
2022-12-03T00:24:03.965Z,15.20
2022-12-03T00:25:03.954Z,15.40
2022-12-03T00:26:03.944Z,15.30
2022-12-03T00:27:03.943Z,15.50
2022-12-03T00:28:03.962Z,16.40
2022-12-03T00:29:03.917Z,15.70
2022-12-03T00:30:03.925Z,15.60
2022-12-03T00:31:03.946Z,15.60
2022-12-03T00:32:03.890Z,16.00
2022-12-03T00:33:03.907Z,15.20
2022-12-03T00:34:03.888Z,15.50
2022-12-03T00:35:03.871Z,15.30
2022-12-03T00:36:03.850Z,15.80
2022-12-03T00:37:03.851Z,15.00
2022-12-03T00:38:03.860Z,15.60
2022-12-03T00:39:03.825Z,16.30
2022-12-03T00:40:03.860Z,15.70
2022-12-03T00:41:03.817Z,16.90
2022-12-03T00:42:03.792Z,16.00
2022-12-03T00:43:03.828Z,15.00
2022-12-03T00:44:03.783Z,16.30
2022-12-03T00:45:03.777Z,15.70
2022-12-03T00:46:03.842Z,15.30
2022-12-03T00:47:03.864Z,16.30
2022-12-03T00:48:03.743Z,15.40
2022-12-03T00:49:03.750Z,14.90
2022-12-03T00:50:03.722Z,15.00
2022-12-03T00:51:03.736Z,15.70
2022-12-03T00:52:03.712Z,15.80
2022-12-03T00:53:03.757Z,15.20
2022-12-03T00:54:03.704Z,15.70
2022-12-03T00:55:04.687Z,15.80
2022-12-03T00:56:03.678Z,15.70
2022-12-03T00:57:03.674Z,16.20
2022-12-03T00:58:03.649Z,15.80
2022-12-03T00:59:03.661Z,15.80
2022-12-03T01:00:03.654Z,16.50
2022-12-03T01:01:03.634Z,16.30
2022-12-03T01:02:03.693Z,16.30
2022-12-03T01:03:03.614Z,16.50
2022-12-03T01:04:03.658Z,17.00
2022-12-03T01:05:03.692Z,17.00
2022-12-03T01:06:03.576Z,17.50
2022-12-03T01:07:03.581Z,17.00
2022-12-03T01:08:03.695Z,18.10
2022-12-03T01:09:03.581Z,17.40
2022-12-03T01:10:03.539Z,16.90
2022-12-03T01:11:03.544Z,17.90
2022-12-03T01:12:03.537Z,17.80
2022-12-03T01:13:03.516Z,17.10
2022-12-03T01:14:03.540Z,16.90
2022-12-03T01:15:03.497Z,17.30
2022-12-03T01:16:03.585Z,17.60
2022-12-03T01:17:03.486Z,18.20
2022-12-03T01:18:03.466Z,18.70
2022-12-03T01:19:03.475Z,17.40
2022-12-03T01:20:03.470Z,18.50
2022-12-03T01:21:03.442Z,18.00
2022-12-03T01:22:03.436Z,18.90
2022-12-03T01:23:03.427Z,18.20
2022-12-03T01:24:03.427Z,18.00
2022-12-03T01:25:03.393Z,17.60
2022-12-03T01:26:03.386Z,18.40
2022-12-03T01:27:03.385Z,18.00
2022-12-03T01:28:03.363Z,17.80
2022-12-03T01:29:03.465Z,17.80
2022-12-03T01:30:03.353Z,18.60
2022-12-03T01:31:03.375Z,18.60
2022-12-03T01:32:03.329Z,18.60
2022-12-03T01:33:03.314Z,19.70
2022-12-03T01:34:03.326Z,18.10
2022-12-03T01:35:03.298Z,18.70
2022-12-03T01:36:03.285Z,18.30
2022-12-03T01:37:03.285Z,18.90
2022-12-03T01:38:03.271Z,18.00
2022-12-03T01:39:03.331Z,18.80
2022-12-03T01:40:03.281Z,18.60
2022-12-03T01:41:05.982Z,17.20
2022-12-03T01:42:05.233Z,17.40
2022-12-03T01:43:03.226Z,17.50
2022-12-03T01:44:03.233Z,16.70
2022-12-03T01:45:03.206Z,17.20
2022-12-03T01:46:03.230Z,16.70
2022-12-03T01:47:03.267Z,17.30
2022-12-03T01:48:03.174Z,17.50
2022-12-03T01:49:03.183Z,16.90
2022-12-03T01:50:03.161Z,16.50
2022-12-03T01:51:03.142Z,16.60
2022-12-03T01:52:03.140Z,16.80
2022-12-03T01:53:03.119Z,16.30
2022-12-03T01:54:03.152Z,16.30
2022-12-03T01:55:03.105Z,16.10
2022-12-03T01:56:03.108Z,15.90
2022-12-03T01:57:03.081Z,17.00
2022-12-03T01:58:04.078Z,16.30
2022-12-03T01:59:03.085Z,15.90
2022-12-03T02:00:03.069Z,16.00
2022-12-03T02:01:03.038Z,16.00
2022-12-03T02:02:03.094Z,16.30
2022-12-03T02:03:03.025Z,16.40
2022-12-03T02:04:03.098Z,16.10
2022-12-03T02:05:03.027Z,15.60
2022-12-03T02:06:02.997Z,15.30
2022-12-03T02:07:03.008Z,16.10
2022-12-03T02:08:03.031Z,16.10
2022-12-03T02:09:02.984Z,15.10
2022-12-03T02:10:02.961Z,16.40
2022-12-03T02:11:02.948Z,16.50
2022-12-03T02:12:02.943Z,15.90
2022-12-03T02:13:02.944Z,14.70
2022-12-03T02:14:02.946Z,16.70
2022-12-03T02:15:02.917Z,16.70
2022-12-03T02:16:02.927Z,16.10
2022-12-03T02:17:02.912Z,16.10
2022-12-03T02:18:02.887Z,15.80
2022-12-03T02:19:02.896Z,15.70
2022-12-03T02:20:02.864Z,14.70
2022-12-03T02:21:03.849Z,15.50
2022-12-03T02:22:02.855Z,15.50
2022-12-03T02:23:02.844Z,15.40
2022-12-03T02:24:02.847Z,14.60
2022-12-03T02:25:02.834Z,15.00
2022-12-03T02:26:02.805Z,15.70
2022-12-03T02:27:02.813Z,15.10
2022-12-03T02:28:02.817Z,15.10
2022-12-03T02:29:02.812Z,14.50
2022-12-03T02:30:02.777Z,15.10
2022-12-03T02:31:02.818Z,14.40
2022-12-03T02:32:02.760Z,15.00
2022-12-03T02:33:02.741Z,15.00
2022-12-03T02:34:02.747Z,16.00
2022-12-03T02:35:03.728Z,15.10
2022-12-03T02:36:04.048Z,15.10
2022-12-03T02:37:03.740Z,15.20
2022-12-03T02:38:02.703Z,15.80
2022-12-03T02:39:02.711Z,15.20
2022-12-03T02:40:02.687Z,15.00
2022-12-03T02:41:02.679Z,15.80
2022-12-03T02:42:02.716Z,15.00
2022-12-03T02:43:02.656Z,16.20
2022-12-03T02:44:02.676Z,16.00
2022-12-03T02:45:05.385Z,16.00
2022-12-03T02:46:03.634Z,16.50
2022-12-03T02:47:02.707Z,16.50
2022-12-03T02:48:02.617Z,16.90
2022-12-03T02:49:02.634Z,17.10
2022-12-03T02:50:02.586Z,16.80
2022-12-03T02:51:02.579Z,16.70
2022-12-03T02:52:02.588Z,15.90
2022-12-03T02:53:02.567Z,16.80
2022-12-03T02:54:02.574Z,16.10
2022-12-03T02:55:02.548Z,16.10
2022-12-03T02:56:02.541Z,15.80
2022-12-03T02:57:02.525Z,16.40
2022-12-03T02:58:02.522Z,16.70
2022-12-03T02:59:02.525Z,16.50
2022-12-03T03:00:02.495Z,16.20
2022-12-03T03:01:02.529Z,17.00
2022-12-03T03:02:02.524Z,16.20
2022-12-03T03:03:02.482Z,16.60
2022-12-03T03:04:02.479Z,16.20
2022-12-03T03:05:02.448Z,17.00
2022-12-03T03:08:09.124Z,17.10
2022-12-03T03:08:48.087Z,17.00
2022-12-03T03:09:48.059Z,18.20
2022-12-03T03:10:48.050Z,17.10
2022-12-03T03:11:48.039Z,17.80
2022-12-03T03:12:48.033Z,17.40
2022-12-03T03:13:48.035Z,17.20
2022-12-03T03:14:48.020Z,17.20
2022-12-03T03:15:48.025Z,17.00
2022-12-03T03:16:48.073Z,17.60
2022-12-03T03:17:47.982Z,17.40
2022-12-03T03:18:47.989Z,17.20
2022-12-03T03:19:49.096Z,16.30
2022-12-03T03:20:49.071Z,17.10
2022-12-03T03:21:49.060Z,16.80
2022-12-03T03:22:49.050Z,17.10
2022-12-03T03:23:49.064Z,16.80
2022-12-03T03:24:49.032Z,16.80
2022-12-03T03:25:49.024Z,16.70
2022-12-03T03:26:49.014Z,16.60
2022-12-03T03:27:49.006Z,15.90
2022-12-03T03:28:49.013Z,17.00
2022-12-03T03:29:48.984Z,16.80
2022-12-03T03:30:48.974Z,17.40
2022-12-03T03:31:49.049Z,17.10
2022-12-03T03:32:48.956Z,17.90
2022-12-03T03:33:48.970Z,16.90
2022-12-03T03:34:48.955Z,17.10
2022-12-03T03:35:48.929Z,17.60
2022-12-03T03:36:48.922Z,17.40
2022-12-03T03:37:48.912Z,17.60
2022-12-03T03:38:48.914Z,17.30
2022-12-03T03:39:48.887Z,16.60
2022-12-03T03:40:48.883Z,17.50
2022-12-03T03:41:48.882Z,17.20
2022-12-03T03:42:48.862Z,17.60
2022-12-03T03:44:20.773Z,17.50
2022-12-03T03:44:48.840Z,18.60
2022-12-03T03:45:48.850Z,17.80
2022-12-03T03:46:48.823Z,18.20
2022-12-03T03:47:48.807Z,17.80
2022-12-03T03:48:48.791Z,16.80
2022-12-03T03:49:49.806Z,16.90
2022-12-03T03:50:48.785Z,17.20
2022-12-03T03:51:48.783Z,17.60
2022-12-03T03:52:48.768Z,18.70
2022-12-03T03:53:48.755Z,18.00
2022-12-03T03:54:48.777Z,17.90
2022-12-03T03:55:48.725Z,18.20
2022-12-03T03:56:48.724Z,17.70
2022-12-03T03:57:48.711Z,18.40
2022-12-03T03:58:48.704Z,18.00
2022-12-03T03:59:48.700Z,18.40
2022-12-03T04:00:48.715Z,19.50
2022-12-03T04:01:48.746Z,18.70
2022-12-03T04:02:48.665Z,18.70
2022-12-03T04:03:48.698Z,19.10
2022-12-03T04:04:48.660Z,19.80
2022-12-03T04:05:48.636Z,18.60
2022-12-03T04:06:48.638Z,18.80
2022-12-03T04:07:48.649Z,18.20
2022-12-03T04:08:48.603Z,19.60
2022-12-03T04:09:48.613Z,17.80
2022-12-03T04:10:48.589Z,18.40
2022-12-03T04:11:48.577Z,18.10
2022-12-03T04:12:48.555Z,18.80
2022-12-03T04:13:48.550Z,18.90
2022-12-03T04:14:48.632Z,18.80
2022-12-03T04:15:48.534Z,18.60
2022-12-03T04:16:48.559Z,19.10
2022-12-03T04:17:48.515Z,18.60
2022-12-03T04:18:48.527Z,19.70
2022-12-03T04:19:48.525Z,19.20
2022-12-03T04:20:48.483Z,18.50
2022-12-03T04:21:48.475Z,18.50
2022-12-03T04:22:48.469Z,19.50
2022-12-03T04:23:48.466Z,18.40
2022-12-03T04:24:48.482Z,20.20
2022-12-03T04:25:48.444Z,19.50
2022-12-03T04:26:48.447Z,19.80
2022-12-03T04:27:48.424Z,19.60
2022-12-03T04:28:48.405Z,20.00
2022-12-03T04:29:48.410Z,19.80
2022-12-03T04:30:48.432Z,19.40
2022-12-03T04:31:48.380Z,19.10
2022-12-03T04:32:48.377Z,19.10
2022-12-03T04:33:48.360Z,19.70
2022-12-03T04:34:48.371Z,19.70
2022-12-03T04:35:48.402Z,19.80
2022-12-03T04:36:49.333Z,20.10
2022-12-03T04:37:48.317Z,19.40
2022-12-03T04:38:48.308Z,19.70
2022-12-03T04:39:48.311Z,20.20
2022-12-03T04:40:48.283Z,20.10
2022-12-03T04:41:48.276Z,20.40
2022-12-03T04:42:48.263Z,19.90
2022-12-03T04:43:48.263Z,19.80
2022-12-03T04:44:48.264Z,19.10
2022-12-03T04:45:48.357Z,19.90
2022-12-03T04:46:48.268Z,19.40
2022-12-03T04:47:48.216Z,20.70
2022-12-03T04:48:48.198Z,19.80
2022-12-03T04:49:48.207Z,19.80
2022-12-03T04:50:48.189Z,20.70
2022-12-03T04:51:48.183Z,20.50
2022-12-03T04:52:48.188Z,20.70
2022-12-03T04:53:48.157Z,19.90
2022-12-03T04:54:48.211Z,19.30
2022-12-03T04:55:48.145Z,20.50
2022-12-03T04:56:48.120Z,20.60
2022-12-03T04:57:48.119Z,19.40
2022-12-03T04:58:48.116Z,21.00
2022-12-03T04:59:48.135Z,19.80
2022-12-03T05:00:48.091Z,20.50
2022-12-03T05:01:48.143Z,20.40
2022-12-03T05:02:48.133Z,19.60
2022-12-03T05:03:48.064Z,19.80
2022-12-03T05:04:48.054Z,20.10
2022-12-03T05:05:48.056Z,20.30
2022-12-03T05:06:48.064Z,19.90
2022-12-03T05:07:48.119Z,20.10
2022-12-03T05:08:48.019Z,20.40
2022-12-03T05:09:48.038Z,20.40
2022-12-03T05:10:48.008Z,20.70
2022-12-03T05:11:47.998Z,20.30
2022-12-03T05:12:47.984Z,20.80
2022-12-03T05:13:47.979Z,20.50
2022-12-03T05:14:47.985Z,19.60
2022-12-03T05:15:47.957Z,20.40
2022-12-03T05:16:48.024Z,19.50
2022-12-03T05:17:47.934Z,20.60
2022-12-03T05:18:47.928Z,20.90
2022-12-03T05:19:47.957Z,21.00
2022-12-03T05:20:53.262Z,19.70
2022-12-03T05:21:48.903Z,20.80
2022-12-03T05:22:47.909Z,21.00
2022-12-03T05:23:47.905Z,21.00
2022-12-03T05:24:47.877Z,21.60
2022-12-03T05:25:47.860Z,20.40
2022-12-03T05:26:47.847Z,20.20
2022-12-03T05:27:47.849Z,18.90
2022-12-03T05:28:47.828Z,19.50
2022-12-03T05:29:47.863Z,18.80
2022-12-03T05:30:47.928Z,20.20
2022-12-03T05:31:47.801Z,19.50
2022-12-03T05:32:47.789Z,19.60
2022-12-03T05:33:47.784Z,19.50
2022-12-03T05:34:47.820Z,19.00
2022-12-03T05:35:47.767Z,17.20
2022-12-03T05:36:47.756Z,18.60
2022-12-03T05:37:47.745Z,19.00
2022-12-03T05:38:47.737Z,18.50
2022-12-03T05:39:47.762Z,19.10
2022-12-03T05:40:47.713Z,18.50
2022-12-03T05:41:47.710Z,18.40
2022-12-03T05:42:47.719Z,19.00
2022-12-03T05:43:47.690Z,18.30
2022-12-03T05:44:47.706Z,18.70
2022-12-03T05:45:47.708Z,18.80
2022-12-03T05:46:47.666Z,19.10
2022-12-03T05:47:47.670Z,19.00
2022-12-03T05:48:47.638Z,18.50
2022-12-03T05:49:47.628Z,18.30
2022-12-03T05:50:48.639Z,17.80
2022-12-03T05:51:47.612Z,18.00
2022-12-03T05:52:47.606Z,19.30
2022-12-03T05:53:47.603Z,19.30
2022-12-03T05:54:47.587Z,18.80
2022-12-03T05:55:47.604Z,19.30
2022-12-03T05:56:47.565Z,19.30
2022-12-03T05:57:48.564Z,19.20
2022-12-03T05:58:47.549Z,20.40
2022-12-03T05:59:47.544Z,19.60
2022-12-03T06:00:47.543Z,19.30
2022-12-03T06:01:47.518Z,19.00
2022-12-03T06:02:47.633Z,19.50
2022-12-03T06:03:47.665Z,19.00
2022-12-03T06:04:47.484Z,18.40
2022-12-03T06:05:47.498Z,18.50
2022-12-03T06:06:47.468Z,18.60
2022-12-03T06:07:47.557Z,18.40
2022-12-03T06:08:47.457Z,18.10
2022-12-03T06:09:47.442Z,19.30
2022-12-03T06:10:47.460Z,18.30
2022-12-03T06:11:47.486Z,18.60
2022-12-03T06:12:47.410Z,18.70
2022-12-03T06:13:47.402Z,18.40
2022-12-03T06:14:47.394Z,18.90
2022-12-03T06:15:47.417Z,23.00
2022-12-03T06:16:47.421Z,21.60
2022-12-03T06:17:47.375Z,18.90
2022-12-03T06:18:47.351Z,19.90
2022-12-03T06:19:47.348Z,20.70
2022-12-03T06:20:47.351Z,19.30
2022-12-03T06:21:47.329Z,19.40
2022-12-03T06:22:48.324Z,19.00
2022-12-03T06:23:47.344Z,22.20
2022-12-03T06:24:47.305Z,19.80
2022-12-03T06:25:47.317Z,19.50
2022-12-03T06:26:47.282Z,18.60
2022-12-03T06:27:47.272Z,18.50
2022-12-03T06:28:47.255Z,18.60
2022-12-03T06:29:47.249Z,17.70
2022-12-03T06:30:47.282Z,18.30
2022-12-03T06:31:47.273Z,18.10
2022-12-03T06:32:47.228Z,17.90
2022-12-03T06:33:47.217Z,17.10
2022-12-03T06:34:47.209Z,17.50
2022-12-03T06:35:47.217Z,18.30
2022-12-03T06:36:47.193Z,18.50
2022-12-03T06:37:47.180Z,18.80
2022-12-03T06:38:47.164Z,18.20
2022-12-03T06:39:47.167Z,18.50
2022-12-03T06:40:47.189Z,18.50
2022-12-03T06:41:47.138Z,17.80
2022-12-03T06:42:47.126Z,18.00
2022-12-03T06:43:47.121Z,17.20
2022-12-03T06:44:47.117Z,18.00
2022-12-03T06:45:48.029Z,18.50
2022-12-03T06:46:48.140Z,17.60
2022-12-03T06:47:47.079Z,18.00
2022-12-03T06:48:47.082Z,17.00
2022-12-03T06:49:47.072Z,18.50
2022-12-03T06:50:47.072Z,17.20
2022-12-03T06:51:47.028Z,17.60
2022-12-03T06:52:47.043Z,17.50
2022-12-03T06:53:47.026Z,18.30
2022-12-03T06:54:47.030Z,17.30
2022-12-03T06:55:47.028Z,18.70
2022-12-03T06:56:46.993Z,19.80
2022-12-03T06:57:46.989Z,22.00
2022-12-03T06:58:46.975Z,17.40
2022-12-03T06:59:46.968Z,17.40
2022-12-03T07:00:46.969Z,17.90
2022-12-03T07:01:48.009Z,17.90
2022-12-03T07:02:47.032Z,17.50
2022-12-03T07:03:46.931Z,18.40
2022-12-03T07:04:46.925Z,18.60
2022-12-03T07:05:46.933Z,18.80
2022-12-03T07:06:46.897Z,18.80
2022-12-03T07:07:46.909Z,18.30
2022-12-03T07:08:46.878Z,18.20
2022-12-03T07:09:46.871Z,18.60
2022-12-03T07:10:46.889Z,19.20
2022-12-03T07:11:46.844Z,19.10
2022-12-03T07:12:46.848Z,18.40
2022-12-03T07:13:46.835Z,18.70
2022-12-03T07:14:46.824Z,18.30
2022-12-03T07:15:46.936Z,18.30
2022-12-03T07:16:46.817Z,17.60
2022-12-03T07:17:46.799Z,17.30
2022-12-03T07:18:46.787Z,18.90
2022-12-03T07:19:46.780Z,18.70
2022-12-03T07:20:46.806Z,18.10
2022-12-03T07:21:46.763Z,18.10
2022-12-03T07:22:46.747Z,19.50
2022-12-03T07:23:46.738Z,19.30
2022-12-03T07:24:46.736Z,19.30
2022-12-03T07:25:46.743Z,19.50
2022-12-03T07:26:46.711Z,20.20
2022-12-03T07:27:46.706Z,18.70
2022-12-03T07:28:46.701Z,18.90
2022-12-03T07:29:46.690Z,19.10
2022-12-03T07:30:46.695Z,18.70
2022-12-03T07:31:46.714Z,19.10
2022-12-03T07:32:46.654Z,18.40
2022-12-03T07:33:46.647Z,20.10
2022-12-03T07:34:46.641Z,19.40
2022-12-03T07:35:46.674Z,19.00
2022-12-03T07:36:46.622Z,20.10
2022-12-03T07:37:46.639Z,19.20
2022-12-03T07:38:46.602Z,19.70
2022-12-03T07:39:46.584Z,20.20
2022-12-03T07:40:46.615Z,20.50
2022-12-03T07:41:46.574Z,19.60
2022-12-03T07:42:46.567Z,19.20
2022-12-03T07:43:46.559Z,20.40
2022-12-03T07:44:46.550Z,19.70
2022-12-03T07:45:46.553Z,20.40
2022-12-03T07:46:46.607Z,19.80
2022-12-03T07:47:46.518Z,20.10
2022-12-03T07:48:46.514Z,20.30
2022-12-03T07:49:46.506Z,20.60
2022-12-03T07:50:46.512Z,20.80
2022-12-03T07:51:46.494Z,21.50
2022-12-03T07:52:46.474Z,20.70
2022-12-03T07:53:46.472Z,21.80
2022-12-03T07:54:46.464Z,21.50
2022-12-03T07:55:46.477Z,21.10
2022-12-03T07:56:46.444Z,21.60
2022-12-03T07:57:46.435Z,22.40
2022-12-03T07:58:46.425Z,21.50
2022-12-03T07:59:46.409Z,21.60
2022-12-03T08:00:46.443Z,21.30
2022-12-03T08:01:46.465Z,21.70
2022-12-03T08:02:46.461Z,21.80
2022-12-03T08:03:46.373Z,21.50
2022-12-03T08:04:46.372Z,22.70
2022-12-03T08:05:46.382Z,22.60
2022-12-03T08:06:46.351Z,22.50
2022-12-03T08:07:46.427Z,22.50
2022-12-03T08:08:46.332Z,22.70
2022-12-03T08:09:46.339Z,23.30
2022-12-03T08:10:46.354Z,22.40
2022-12-03T08:11:46.305Z,21.90
2022-12-03T08:12:46.308Z,22.30
2022-12-03T08:13:46.285Z,22.60
2022-12-03T08:14:46.280Z,22.90
2022-12-03T08:15:46.295Z,21.50
2022-12-03T08:16:46.319Z,23.20
2022-12-03T08:17:46.258Z,22.60
2022-12-03T08:18:46.244Z,22.50
2022-12-03T08:19:46.249Z,23.30
2022-12-03T08:20:46.253Z,22.90
2022-12-03T08:21:46.220Z,22.90
2022-12-03T08:22:46.217Z,22.30
2022-12-03T08:23:46.207Z,22.00
2022-12-03T08:24:46.203Z,22.00
2022-12-03T08:25:46.204Z,22.10
2022-12-03T08:26:46.178Z,22.00
2022-12-03T08:27:46.165Z,21.80
2022-12-03T08:28:46.149Z,21.80
2022-12-03T08:29:46.146Z,21.50
2022-12-03T08:30:46.145Z,21.40
2022-12-03T08:31:46.176Z,21.70
2022-12-03T08:32:46.119Z,22.50
2022-12-03T08:33:46.117Z,21.90
2022-12-03T08:34:46.107Z,23.20
2022-12-03T08:35:46.111Z,22.90
2022-12-03T08:36:46.083Z,23.60
2022-12-03T08:37:46.065Z,25.30
2022-12-03T08:38:46.069Z,24.50
2022-12-03T08:39:46.052Z,25.20
2022-12-03T08:40:46.069Z,24.60
2022-12-03T08:41:46.035Z,23.20
2022-12-03T08:42:46.026Z,23.70
2022-12-03T08:43:46.017Z,23.90
2022-12-03T08:44:46.049Z,22.30
2022-12-03T08:45:46.096Z,22.90
2022-12-03T08:46:45.991Z,22.90
2022-12-03T08:47:45.983Z,23.00
2022-12-03T08:48:49.045Z,23.50
2022-12-03T08:49:46.966Z,22.70
2022-12-03T08:50:45.974Z,22.80
2022-12-03T08:51:45.946Z,22.70
2022-12-03T08:52:45.932Z,22.90
2022-12-03T08:53:45.940Z,24.40
2022-12-03T08:54:45.905Z,25.10
2022-12-03T08:55:46.939Z,27.00
2022-12-03T08:56:45.892Z,24.70
2022-12-03T08:57:45.892Z,23.70
2022-12-03T08:58:45.890Z,22.00
2022-12-03T08:59:46.005Z,23.70
2022-12-03T09:00:45.890Z,23.50
2022-12-03T09:01:45.930Z,24.20
2022-12-03T09:02:45.870Z,23.80
2022-12-03T09:03:45.870Z,23.80
2022-12-03T09:04:45.844Z,24.30
2022-12-03T09:05:45.835Z,23.90
2022-12-03T09:06:45.816Z,23.90
2022-12-03T09:07:45.873Z,24.50
2022-12-03T09:08:45.786Z,23.40
2022-12-03T09:09:45.779Z,23.80
2022-12-03T09:10:45.788Z,22.70
2022-12-03T09:11:45.776Z,22.90
2022-12-03T09:12:45.753Z,23.00
2022-12-03T09:13:45.755Z,22.70
2022-12-03T09:14:45.734Z,23.30
2022-12-03T09:15:45.752Z,23.50
2022-12-03T09:16:45.851Z,23.60
2022-12-03T09:17:45.710Z,22.40
2022-12-03T09:18:45.708Z,22.90
2022-12-03T09:19:46.351Z,24.10
2022-12-03T09:20:46.708Z,22.40
2022-12-03T09:21:45.676Z,23.90
2022-12-03T09:22:45.671Z,23.90
2022-12-03T09:23:45.659Z,22.30
2022-12-03T09:24:45.649Z,22.10
2022-12-03T09:25:45.665Z,21.80
2022-12-03T09:26:45.642Z,21.70
2022-12-03T09:27:45.622Z,22.50
2022-12-03T09:28:45.616Z,22.10
2022-12-03T09:29:45.595Z,22.60
2022-12-03T09:30:45.594Z,22.40
2022-12-03T09:31:45.653Z,22.00
2022-12-03T09:32:45.571Z,22.00
2022-12-03T09:33:45.568Z,21.80
2022-12-03T09:34:45.557Z,22.20
2022-12-03T09:35:45.552Z,21.40
2022-12-03T09:36:45.562Z,22.90
2022-12-03T09:37:45.529Z,21.60
2022-12-03T09:38:47.873Z,22.20
2022-12-03T09:39:46.516Z,22.20
2022-12-03T09:40:45.504Z,22.70
2022-12-03T09:41:45.525Z,23.00
2022-12-03T09:42:45.489Z,21.90
2022-12-03T09:44:47.483Z,21.60
2022-12-03T09:46:20.360Z,21.10
2022-12-03T09:46:45.455Z,22.90
2022-12-03T09:47:45.432Z,23.00
2022-12-03T09:48:45.433Z,21.90
2022-12-03T09:49:45.429Z,22.40
2022-12-03T09:50:45.409Z,22.20
2022-12-03T09:51:45.414Z,22.70
2022-12-03T09:52:45.412Z,24.20
2022-12-03T09:53:45.410Z,23.10
2022-12-03T09:54:47.589Z,24.80
2022-12-03T09:55:46.366Z,24.80
2022-12-03T09:56:45.380Z,24.00
2022-12-03T09:57:45.356Z,23.20
2022-12-03T09:58:45.350Z,23.40
2022-12-03T09:59:45.327Z,23.50
2022-12-03T10:00:45.321Z,22.90
2022-12-03T10:01:45.400Z,23.00
2022-12-03T10:02:45.325Z,22.30
2022-12-03T10:03:45.281Z,22.70
2022-12-03T10:04:45.383Z,23.50
2022-12-03T10:05:48.210Z,23.60
2022-12-03T10:06:46.524Z,22.50
2022-12-03T10:07:45.374Z,23.00
2022-12-03T10:08:45.244Z,23.00
2022-12-03T10:09:45.235Z,22.00
2022-12-03T10:10:45.229Z,22.60
2022-12-03T10:11:45.230Z,22.60
2022-12-03T10:12:45.208Z,22.50
2022-12-03T10:13:45.193Z,22.70
2022-12-03T10:14:45.186Z,22.30
2022-12-03T10:15:45.175Z,22.00
2022-12-03T10:16:45.289Z,21.30
2022-12-03T10:17:45.161Z,21.60
2022-12-03T10:18:45.152Z,21.40
2022-12-03T10:19:45.146Z,21.50
2022-12-03T10:20:45.121Z,22.50
2022-12-03T10:21:46.151Z,22.00
2022-12-03T10:22:45.118Z,22.10
2022-12-03T10:23:46.473Z,21.50
2022-12-03T10:24:45.229Z,22.40
2022-12-03T10:25:45.094Z,22.30
2022-12-03T10:26:45.101Z,21.80
2022-12-03T10:27:45.062Z,23.00
2022-12-03T10:28:45.064Z,21.80
2022-12-03T10:29:45.061Z,21.50
2022-12-03T10:30:45.127Z,21.40
2022-12-03T10:31:45.058Z,21.10
2022-12-03T10:32:45.028Z,21.40
2022-12-03T10:33:45.026Z,20.80
2022-12-03T10:34:45.009Z,21.20
2022-12-03T10:35:44.994Z,21.20
2022-12-03T10:36:45.024Z,21.90
2022-12-03T10:37:44.992Z,22.00
2022-12-03T10:38:44.973Z,21.50
2022-12-03T10:39:44.974Z,22.40
2022-12-03T10:40:44.959Z,22.70
2022-12-03T10:41:44.961Z,22.00
2022-12-03T10:42:44.939Z,21.50
2022-12-03T10:43:44.917Z,21.70
2022-12-03T10:44:44.921Z,21.30
2022-12-03T10:45:44.960Z,22.80
2022-12-03T10:46:45.111Z,23.10
2022-12-03T10:47:44.964Z,22.20
2022-12-03T10:48:44.930Z,22.30
2022-12-03T10:49:44.880Z,21.80
2022-12-03T10:50:44.973Z,22.40
2022-12-03T10:51:44.879Z,21.60
2022-12-03T10:52:44.853Z,22.70
2022-12-03T10:53:44.844Z,24.60
2022-12-03T10:54:44.839Z,22.60
2022-12-03T10:55:44.823Z,25.50
2022-12-03T10:56:44.834Z,25.00
2022-12-03T10:57:46.119Z,26.60
2022-12-03T10:58:45.797Z,29.30
2022-12-03T10:59:44.803Z,24.10
2022-12-03T11:00:45.783Z,39.90
2022-12-03T11:01:44.913Z,31.10
2022-12-03T11:02:44.761Z,30.20
2022-12-03T11:03:44.810Z,37.30
2022-12-03T11:04:44.745Z,29.50
2022-12-03T11:05:44.729Z,25.50
2022-12-03T11:06:44.743Z,24.70
2022-12-03T11:07:44.779Z,24.70
2022-12-03T11:08:44.715Z,23.70
2022-12-03T11:09:44.693Z,23.00
2022-12-03T11:10:44.696Z,22.00
2022-12-03T11:11:44.741Z,22.50
2022-12-03T11:12:44.678Z,21.90
2022-12-03T11:13:44.687Z,22.50
2022-12-03T11:14:44.679Z,22.70
2022-12-03T11:15:44.726Z,22.50
2022-12-03T11:16:44.697Z,22.30
2022-12-03T11:17:44.676Z,22.90
2022-12-03T11:18:44.659Z,22.10
2022-12-03T11:19:44.672Z,21.50
2022-12-03T11:20:44.601Z,22.60
2022-12-03T11:21:44.678Z,22.40
2022-12-03T11:22:45.584Z,21.90
2022-12-03T11:23:44.577Z,21.60
2022-12-03T11:24:44.552Z,22.60
2022-12-03T11:25:44.560Z,21.90
2022-12-03T11:26:44.571Z,22.90
2022-12-03T11:27:44.534Z,22.00
2022-12-03T11:28:44.535Z,22.10
2022-12-03T11:29:44.530Z,22.90
2022-12-03T11:30:44.531Z,22.40
2022-12-03T11:31:44.715Z,22.40
2022-12-03T11:32:44.500Z,23.00
2022-12-03T11:33:44.499Z,21.50
2022-12-03T11:34:44.479Z,22.00
2022-12-03T11:35:44.470Z,23.20
2022-12-03T11:37:01.116Z,22.80
2022-12-03T11:37:46.459Z,22.80
2022-12-03T11:38:50.752Z,22.80
2022-12-03T11:39:45.439Z,23.50
2022-12-03T11:40:44.426Z,22.40
2022-12-03T11:41:44.442Z,22.50
2022-12-03T11:42:44.412Z,22.50
2022-12-03T11:43:44.415Z,22.20
2022-12-03T11:44:44.393Z,22.60
2022-12-03T11:45:44.389Z,22.50
2022-12-03T11:46:44.454Z,22.00
2022-12-03T11:47:44.362Z,22.50
2022-12-03T11:48:44.360Z,22.60
2022-12-03T11:49:44.356Z,22.00
2022-12-03T11:50:44.373Z,22.30
2022-12-03T11:51:44.366Z,22.00
2022-12-03T11:52:44.347Z,22.70
2022-12-03T11:53:44.314Z,23.20
2022-12-03T11:54:44.304Z,23.00
2022-12-03T11:55:44.301Z,22.10
2022-12-03T11:56:44.357Z,22.30
2022-12-03T11:57:44.288Z,23.50
2022-12-03T11:58:44.275Z,23.50
2022-12-03T11:59:44.253Z,23.30
2022-12-03T12:00:44.250Z,23.70
2022-12-03T12:01:44.267Z,23.80
2022-12-03T12:02:44.409Z,23.00
2022-12-03T12:03:44.341Z,25.20
2022-12-03T12:04:44.225Z,26.40
2022-12-03T12:05:44.206Z,23.60
2022-12-03T12:06:44.206Z,26.80
2022-12-03T12:07:44.240Z,27.40
2022-12-03T12:08:44.253Z,24.40
2022-12-03T12:09:44.177Z,22.10
2022-12-03T12:10:44.169Z,22.40
2022-12-03T12:11:44.146Z,23.20
2022-12-03T12:12:51.050Z,22.60
2022-12-03T12:13:46.140Z,23.20
2022-12-03T12:14:44.170Z,23.30
2022-12-03T12:15:44.216Z,23.00
2022-12-03T12:16:44.229Z,22.80
2022-12-03T12:17:44.121Z,22.80
2022-12-03T12:18:44.085Z,23.70
2022-12-03T12:19:46.470Z,22.80
2022-12-03T12:20:44.150Z,22.70
2022-12-03T12:21:44.116Z,23.20
2022-12-03T12:22:44.109Z,22.70
2022-12-03T12:23:45.130Z,22.90
2022-12-03T12:24:44.114Z,23.90
2022-12-03T12:25:44.063Z,23.70
2022-12-03T12:26:44.065Z,23.00
2022-12-03T12:27:44.071Z,23.50
2022-12-03T12:28:44.021Z,23.20
2022-12-03T12:29:44.022Z,22.00
2022-12-03T12:30:44.013Z,22.60
2022-12-03T12:31:44.056Z,22.80
2022-12-03T12:32:44.051Z,25.10
2022-12-03T12:33:44.017Z,25.90
2022-12-03T12:34:43.961Z,24.90
2022-12-03T12:35:43.985Z,23.00
2022-12-03T12:36:43.975Z,23.10
2022-12-03T12:37:47.353Z,24.00
2022-12-03T12:38:44.913Z,23.00
2022-12-03T12:39:43.979Z,23.20
2022-12-03T12:40:43.928Z,22.10
2022-12-03T12:41:43.923Z,22.30
2022-12-03T12:42:43.936Z,23.00
2022-12-03T12:43:43.875Z,22.40
2022-12-03T12:44:43.854Z,22.40
2022-12-03T12:45:43.898Z,22.20
2022-12-03T12:46:48.490Z,22.60
2022-12-03T12:47:46.010Z,23.30
2022-12-03T12:48:43.859Z,24.00
2022-12-03T12:49:48.659Z,23.20
2022-12-03T12:50:45.819Z,23.90
2022-12-03T12:51:43.838Z,23.80
2022-12-03T12:52:43.805Z,24.30
2022-12-03T12:53:43.813Z,24.70
2022-12-03T12:54:43.784Z,24.90